Time;durP1;ratioP1;P1;durP2;ratioP2;P2;SDS_P1;SDS_P2;PMS_P1;PMS_P2;Temp;Humidity;BMP_temperature;BMP_pressure;BME280_temperature;BME280_humidity;BME280_pressure;Samples;Min_cycle;Max_cycle;Signal;HPM_P1;HPM_P2
2022/01/01 00:00:13;;;;;;;46.20;21.65;;;11.60;99.90;;;;;;5074470;28;20087;-57
2022/01/01 00:02:40;;;;;;;46.42;23.00;;;11.50;99.90;;;;;;5072802;28;20170;-57
2022/01/01 00:05:07;;;;;;;50.15;22.48;;;11.50;99.90;;;;;;5067235;28;20036;-57
2022/01/01 00:07:34;;;;;;;49.28;23.83;;;11.40;99.90;;;;;;5069691;28;20048;-58
2022/01/01 00:10:00;;;;;;;49.63;23.67;;;11.30;99.90;;;;;;5070028;28;20049;-56
2022/01/01 00:12:26;;;;;;;48.22;23.95;;;11.30;99.90;;;;;;5060723;28;20210;-56
2022/01/01 00:14:51;;;;;;;54.15;24.25;;;11.30;99.90;;;;;;5067481;28;20040;-57
2022/01/01 00:17:17;;;;;;;49.38;24.30;;;11.20;99.90;;;;;;5066559;28;20382;-58
2022/01/01 00:19:42;;;;;;;53.08;25.80;;;11.20;99.90;;;;;;5061991;28;20090;-57
2022/01/01 00:22:08;;;;;;;50.85;24.92;;;11.20;99.90;;;;;;5063521;28;20037;-57
2022/01/01 00:24:34;;;;;;;50.30;25.92;;;11.20;99.90;;;;;;5059551;28;20066;-58
2022/01/01 00:27:00;;;;;;;53.17;27.02;;;11.10;99.90;;;;;;5066266;28;20077;-59
2022/01/01 00:29:26;;;;;;;57.00;27.98;;;11.10;99.90;;;;;;5063889;28;20436;-57
2022/01/01 00:31:52;;;;;;;50.22;27.27;;;;;;;;;;5071713;28;20040;-57
2022/01/01 00:34:18;;;;;;;55.83;28.40;;;;;;;;;;5067143;28;20438;-57
2022/01/01 00:36:44;;;;;;;50.55;28.98;;;;;;;;;;5069089;28;20037;-57
2022/01/01 00:39:10;;;;;;;51.63;29.05;;;;;;;;;;5073402;28;20094;-57
2022/01/01 00:41:35;;;;;;;55.80;31.45;;;11.00;99.90;;;;;;5073105;28;20045;-57
2022/01/01 00:44:01;;;;;;;53.42;30.58;;;11.00;99.90;;;;;;5060659;28;20040;-57
2022/01/01 00:46:26;;;;;;;55.65;30.02;;;11.00;99.90;;;;;;5060276;28;20118;-57
2022/01/01 00:48:53;;;;;;;54.08;30.48;;;11.00;99.90;;;;;;5062206;28;20750;-56
2022/01/01 00:51:23;;;;;;;59.60;29.23;;;11.00;99.90;;;;;;5054772;28;20056;-57
2022/01/01 00:53:50;;;;;;;60.20;29.48;;;11.10;99.90;;;;;;5058320;28;20120;-56
2022/01/01 00:56:16;;;;;;;58.90;30.83;;;11.10;99.90;;;;;;5064321;28;20048;-57
2022/01/01 00:58:41;;;;;;;59.13;29.65;;;11.10;99.90;;;;;;5069536;28;20067;-56
2022/01/01 01:01:07;;;;;;;59.60;29.13;;;11.10;99.90;;;;;;5077325;28;20131;-57
2022/01/01 01:03:33;;;;;;;50.47;27.80;;;11.20;99.90;;;;;;5074133;28;20075;-56
2022/01/01 01:05:59;;;;;;;63.60;28.58;;;11.20;99.90;;;;;;5068550;28;20080;-57
2022/01/01 01:08:26;;;;;;;58.22;27.35;;;11.20;99.90;;;;;;5061464;28;20191;-58
2022/01/01 01:10:52;;;;;;;55.50;26.77;;;11.20;99.90;;;;;;5063508;28;20052;-58
2022/01/01 01:13:20;;;;;;;48.08;26.00;;;11.10;99.90;;;;;;5068074;28;20053;-59
2022/01/01 01:15:46;;;;;;;53.72;25.65;;;11.20;99.90;;;;;;5066088;28;20155;-57
2022/01/01 01:18:12;;;;;;;50.42;25.85;;;11.20;99.90;;;;;;5065536;28;20108;-57
2022/01/01 01:20:38;;;;;;;48.50;25.70;;;11.20;99.90;;;;;;5073435;28;20040;-57
2022/01/01 01:23:04;;;;;;;62.38;26.25;;;11.20;99.90;;;;;;5072644;28;20037;-57
2022/01/01 01:25:32;;;;;;;45.70;23.65;;;11.20;99.90;;;;;;5070327;28;20076;-56
2022/01/01 01:28:07;;;;;;;60.50;25.15;;;11.20;99.90;;;;;;5072298;28;20041;-57
2022/01/01 01:30:33;;;;;;;48.97;23.92;;;11.20;99.90;;;;;;5072683;28;20095;-57
2022/01/01 01:32:59;;;;;;;50.17;23.58;;;11.20;99.90;;;;;;5065141;28;21379;-58
2022/01/01 01:35:24;;;;;;;52.65;24.42;;;11.20;99.90;;;;;;5070616;28;20041;-57
2022/01/01 01:37:50;;;;;;;51.85;24.52;;;11.20;99.90;;;;;;5072208;28;20049;-57
2022/01/01 01:40:15;;;;;;;53.25;25.05;;;11.20;99.90;;;;;;5072356;28;20060;-56
2022/01/01 01:42:43;;;;;;;42.33;23.10;;;11.30;99.90;;;;;;5069442;28;20056;-57
2022/01/01 01:45:14;;;;;;;;;;;11.30;99.90;;;;;;5072386;28;20115;-58
2022/01/01 01:47:40;;;;;;;53.63;24.65;;;11.30;99.90;;;;;;5067245;28;20382;-58
2022/01/01 01:50:08;;;;;;;56.67;24.38;;;11.30;99.90;;;;;;5068382;28;20056;-57
2022/01/01 01:52:36;;;;;;;53.28;25.58;;;11.30;99.90;;;;;;5070567;28;20044;-54
2022/01/01 01:55:04;;;;;;;;;;;11.30;99.90;;;;;;5071758;28;20072;-56
2022/01/01 01:57:30;;;;;;;53.78;26.65;;;11.30;99.90;;;;;;5066347;28;19954;-55
2022/01/01 01:59:56;;;;;;;53.78;26.02;;;11.30;99.90;;;;;;5071397;28;20048;-57
2022/01/01 02:02:22;;;;;;;55.28;27.75;;;11.30;99.90;;;;;;5072347;28;20053;-56
2022/01/01 02:04:48;;;;;;;56.88;26.60;;;11.30;99.90;;;;;;5070366;28;20115;-55
2022/01/01 02:07:14;;;;;;;53.85;27.70;;;11.20;99.90;;;;;;5071654;28;20044;-55
2022/01/01 02:09:39;;;;;;;63.95;30.95;;;11.20;99.90;;;;;;5070184;28;20040;-57
2022/01/01 02:12:07;;;;;;;60.78;30.58;;;11.10;99.90;;;;;;5070093;28;20371;-58
2022/01/01 02:17:14;;;;;;;61.47;31.38;;;11.00;99.90;;;;;;5074042;28;20533;-57
2022/01/01 02:19:54;;;;;;;64.90;32.30;;;11.00;99.90;;;;;;5070645;28;20056;-57
2022/01/01 02:22:20;;;;;;;59.45;31.92;;;10.90;99.90;;;;;;5072971;28;20139;-58
2022/01/01 02:24:47;;;;;;;74.85;33.25;;;10.90;99.90;;;;;;5070601;28;20190;-56
2022/01/01 02:27:13;;;;;;;71.90;35.15;;;10.90;99.90;;;;;;5067718;28;20083;-58
2022/01/01 02:29:39;;;;;;;72.45;36.75;;;10.90;99.90;;;;;;5060035;28;20117;-57
2022/01/01 02:32:14;;;;;;;63.65;34.47;;;10.80;99.90;;;;;;5069628;28;20044;-58
2022/01/01 02:34:41;;;;;;;67.95;34.47;;;10.80;99.90;;;;;;5071072;28;20033;-57
2022/01/01 02:37:06;;;;;;;70.88;34.30;;;10.70;99.90;;;;;;5073892;28;20043;-57
2022/01/01 02:39:32;;;;;;;70.70;35.45;;;10.80;99.90;;;;;;5071441;28;20108;-57
2022/01/01 02:41:58;;;;;;;74.47;35.90;;;10.80;99.90;;;;;;5077093;28;20040;-56
2022/01/01 02:44:25;;;;;;;71.57;36.72;;;10.80;99.90;;;;;;5076439;28;20053;-58
2022/01/01 02:46:55;;;;;;;73.72;39.38;;;10.80;99.90;;;;;;5075428;28;20056;-57
2022/01/01 02:49:21;;;;;;;76.78;41.47;;;10.90;99.90;;;;;;5068068;28;20066;-58
2022/01/01 02:51:47;;;;;;;76.00;40.55;;;11.00;99.90;;;;;;5077904;28;20135;-57
2022/01/01 02:54:13;;;;;;;80.57;42.63;;;11.00;99.90;;;;;;5079754;28;20063;-57
2022/01/01 02:56:38;;;;;;;72.68;43.70;;;11.00;99.90;;;;;;5075402;28;20098;-57
2022/01/01 02:59:04;;;;;;;90.47;45.70;;;11.10;99.90;;;;;;5079782;28;20474;-57
2022/01/01 03:01:30;;;;;;;80.95;44.88;;;11.10;99.90;;;;;;5067067;28;20072;-58
2022/01/01 03:03:56;;;;;;;80.57;45.80;;;11.10;99.90;;;;;;5077776;28;20797;-57
2022/01/01 03:06:21;;;;;;;86.20;46.88;;;11.10;99.90;;;;;;5072251;28;20041;-57
2022/01/01 03:08:51;;;;;;;80.25;45.28;;;11.20;99.90;;;;;;5074940;28;20415;-58
2022/01/01 03:11:17;;;;;;;88.60;47.63;;;11.20;99.90;;;;;;5074097;28;20044;-57
2022/01/01 03:13:43;;;;;;;86.47;49.25;;;11.20;99.90;;;;;;5074509;28;20049;-57
2022/01/01 03:16:09;;;;;;;82.90;47.28;;;11.20;99.90;;;;;;5071659;28;20151;-57
2022/01/01 03:18:34;;;;;;;82.20;47.08;;;11.10;99.90;;;;;;5073887;28;20060;-59
2022/01/01 03:21:00;;;;;;;76.40;46.65;;;11.20;99.90;;;;;;5075163;28;20100;-57
2022/01/01 03:23:25;;;;;;;81.82;47.05;;;11.20;99.90;;;;;;5077045;28;20116;-57
2022/01/01 03:25:51;;;;;;;79.72;46.65;;;11.20;99.90;;;;;;5071543;28;20096;-58
2022/01/01 03:28:17;;;;;;;82.25;46.40;;;11.20;99.90;;;;;;5071088;28;20060;-57
2022/01/01 03:30:43;;;;;;;80.60;47.15;;;11.20;99.90;;;;;;5075109;28;20250;-58
2022/01/01 03:33:08;;;;;;;84.55;48.13;;;11.20;99.90;;;;;;5075230;28;20117;-56
2022/01/01 03:35:34;;;;;;;81.95;45.78;;;11.20;99.90;;;;;;5065429;28;20044;-57
2022/01/01 03:38:00;;;;;;;79.30;45.65;;;11.30;99.90;;;;;;5065747;28;20131;-57
2022/01/01 03:40:25;;;;;;;79.40;44.90;;;11.20;99.90;;;;;;5070452;28;20045;-57
2022/01/01 03:42:51;;;;;;;78.38;46.40;;;11.20;99.90;;;;;;5073548;28;20076;-56
2022/01/01 03:45:16;;;;;;;77.00;45.75;;;11.20;99.90;;;;;;5080820;28;20044;-56
2022/01/01 03:47:42;;;;;;;81.72;47.13;;;11.20;99.90;;;;;;5075902;28;20044;-57
2022/01/01 03:50:07;;;;;;;85.22;48.05;;;11.20;99.90;;;;;;5080251;28;20033;-56
2022/01/01 03:52:34;;;;;;;78.55;47.50;;;11.20;99.90;;;;;;5070341;28;20161;-57
2022/01/01 03:55:00;;;;;;;80.93;47.47;;;11.20;99.90;;;;;;5071724;28;20060;-56
2022/01/01 03:57:26;;;;;;;86.43;49.20;;;11.20;99.90;;;;;;5073900;28;20044;-58
2022/01/01 03:59:52;;;;;;;79.90;49.15;;;11.20;99.90;;;;;;5075763;28;20047;-57
2022/01/01 04:02:17;;;;;;;77.38;48.33;;;11.20;99.90;;;;;;5073246;28;20199;-58
2022/01/01 04:04:43;;;;;;;83.95;49.25;;;11.20;99.90;;;;;;5075834;28;20462;-56
2022/01/01 04:07:09;;;;;;;84.45;49.13;;;11.20;99.90;;;;;;5070848;28;20049;-57
2022/01/01 04:09:35;;;;;;;82.28;48.45;;;11.20;99.90;;;;;;5073975;28;20052;-57
2022/01/01 04:12:01;;;;;;;81.70;47.83;;;11.20;99.90;;;;;;5078425;28;20032;-56
2022/01/01 04:14:26;;;;;;;83.30;50.15;;;11.20;99.90;;;;;;5072019;28;20071;-57
2022/01/01 04:16:53;;;;;;;86.75;49.03;;;11.20;99.90;;;;;;5067339;28;22344;-58
2022/01/01 04:19:23;;;;;;;79.53;49.17;;;11.20;99.90;;;;;;5068390;28;20438;-58
2022/01/01 04:21:49;;;;;;;80.78;47.78;;;11.20;99.90;;;;;;5072127;28;20060;-58
2022/01/01 04:24:15;;;;;;;76.15;48.60;;;11.20;99.90;;;;;;5074234;28;20044;-58
2022/01/01 04:26:40;;;;;;;80.93;49.00;;;11.20;99.90;;;;;;5072358;28;20044;-56
2022/01/01 04:29:06;;;;;;;79.20;49.63;;;11.20;99.90;;;;;;5074327;28;20444;-56
2022/01/01 04:31:32;;;;;;;81.57;49.63;;;11.20;99.90;;;;;;5077445;28;20044;-58
2022/01/01 04:33:57;;;;;;;73.18;47.58;;;11.20;99.90;;;;;;5071877;28;20048;-57
2022/01/01 04:36:23;;;;;;;81.57;49.55;;;11.20;99.90;;;;;;5068960;28;20299;-57
2022/01/01 04:38:49;;;;;;;78.07;48.95;;;11.20;99.90;;;;;;5066410;28;20131;-56
2022/01/01 04:41:16;;;;;;;82.15;49.90;;;11.30;99.90;;;;;;5069202;28;20071;-57
2022/01/01 04:43:43;;;;;;;77.97;47.80;;;11.30;99.90;;;;;;5074038;28;20391;-58
2022/01/01 04:46:10;;;;;;;72.00;48.05;;;11.30;99.90;;;;;;5072268;28;20045;-58
2022/01/01 04:48:37;;;;;;;82.80;50.85;;;11.30;99.90;;;;;;5073045;28;20037;-58
2022/01/01 04:51:07;;;;;;;81.18;50.78;;;11.20;99.90;;;;;;5073854;28;20060;-56
2022/01/01 04:53:39;;;;;;;85.28;49.40;;;11.20;99.90;;;;;;5070594;28;20336;-57
2022/01/01 04:56:07;;;;;;;76.10;46.60;;;11.20;99.90;;;;;;5070845;28;20155;-58
2022/01/01 04:58:34;;;;;;;77.45;46.65;;;11.20;99.90;;;;;;5071034;28;20114;-57
2022/01/01 05:00:59;;;;;;;80.68;46.85;;;11.20;99.90;;;;;;5074022;28;20424;-58
2022/01/01 05:03:25;;;;;;;73.28;44.17;;;11.20;99.90;;;;;;5075438;28;20037;-57
2022/01/01 05:05:50;;;;;;;70.68;43.63;;;11.20;99.90;;;;;;5069611;28;20070;-58
2022/01/01 05:08:16;;;;;;;74.70;42.50;;;11.20;99.90;;;;;;5073351;28;20063;-59
2022/01/01 05:10:41;;;;;;;71.47;40.67;;;11.20;99.90;;;;;;5072236;28;20131;-57
2022/01/01 05:13:08;;;;;;;70.07;39.50;;;11.20;99.90;;;;;;5074390;28;20083;-58
2022/01/01 05:15:34;;;;;;;65.95;39.03;;;11.30;99.90;;;;;;5073352;28;20054;-58
2022/01/01 05:17:59;;;;;;;68.57;36.80;;;11.20;99.90;;;;;;5073755;28;20088;-57
2022/01/01 05:20:26;;;;;;;71.35;36.70;;;11.30;99.90;;;;;;5075193;28;20040;-57
2022/01/01 05:22:51;;;;;;;71.43;36.83;;;11.30;99.90;;;;;;5072629;28;20139;-56
2022/01/01 05:25:17;;;;;;;66.20;36.45;;;11.30;99.90;;;;;;5073892;28;20079;-57
2022/01/01 05:27:43;;;;;;;61.67;36.28;;;11.30;99.90;;;;;;5068456;28;20045;-58
2022/01/01 05:30:10;;;;;;;67.68;34.80;;;11.30;99.90;;;;;;5069372;28;20055;-57
2022/01/01 05:32:35;;;;;;;71.18;36.13;;;11.30;99.90;;;;;;5070383;28;20040;-58
2022/01/01 05:35:01;;;;;;;60.35;33.95;;;11.30;99.90;;;;;;5066989;28;20049;-58
2022/01/01 05:37:27;;;;;;;61.63;34.35;;;11.30;99.90;;;;;;5067357;28;20040;-59
2022/01/01 05:39:53;;;;;;;58.97;33.22;;;11.30;99.90;;;;;;5066980;28;20044;-58
2022/01/01 05:42:18;;;;;;;60.33;31.17;;;11.30;99.90;;;;;;5070648;28;20124;-56
2022/01/01 05:44:44;;;;;;;59.60;31.75;;;11.30;99.90;;;;;;5072360;28;20087;-58
2022/01/01 05:47:09;;;;;;;58.03;31.25;;;11.30;99.90;;;;;;5071595;28;20063;-58
2022/01/01 05:49:35;;;;;;;53.05;29.60;;;11.30;99.90;;;;;;5070570;28;20773;-58
2022/01/01 05:52:00;;;;;;;52.33;28.33;;;11.30;99.90;;;;;;5067636;28;20127;-56
2022/01/01 05:54:26;;;;;;;57.50;28.70;;;11.30;99.90;;;;;;5069785;28;20053;-58
2022/01/01 05:56:52;;;;;;;55.58;27.15;;;11.30;99.90;;;;;;5066642;28;20071;-58
2022/01/01 05:59:17;;;;;;;51.53;27.40;;;11.30;99.90;;;;;;5065549;28;20045;-58
2022/01/01 06:01:43;;;;;;;51.65;27.13;;;11.30;99.90;;;;;;5072658;28;20067;-58
2022/01/01 06:04:08;;;;;;;49.67;26.13;;;11.30;99.90;;;;;;5071692;28;20081;-57
2022/01/01 06:06:34;;;;;;;52.63;28.10;;;11.30;99.90;;;;;;5074472;28;20145;-58
2022/01/01 06:09:00;;;;;;;51.00;26.35;;;11.30;99.90;;;;;;5071673;28;20194;-58
2022/01/01 06:11:25;;;;;;;49.08;25.55;;;11.30;99.90;;;;;;5074835;28;20100;-57
2022/01/01 06:13:51;;;;;;;47.22;26.83;;;11.30;99.90;;;;;;5076169;28;20053;-59
2022/01/01 06:16:17;;;;;;;53.10;26.80;;;11.40;99.90;;;;;;5073143;28;20045;-57
2022/01/01 06:18:42;;;;;;;53.38;26.42;;;11.30;99.90;;;;;;5074166;28;20057;-58
2022/01/01 06:21:08;;;;;;;49.50;24.85;;;11.30;99.90;;;;;;5072099;28;20139;-58
2022/01/01 06:23:37;;;;;;;53.67;25.15;;;11.40;99.90;;;;;;5073259;28;20033;-56
2022/01/01 06:26:03;;;;;;;44.97;25.42;;;11.40;99.90;;;;;;5075988;28;20058;-58
2022/01/01 06:28:29;;;;;;;51.13;24.48;;;11.40;99.90;;;;;;5073861;28;20806;-59
2022/01/01 06:30:54;;;;;;;48.03;24.58;;;11.40;99.90;;;;;;5073367;28;20105;-58
2022/01/01 06:33:21;;;;;;;46.88;24.15;;;11.40;99.90;;;;;;5072949;28;20052;-59
2022/01/01 06:35:48;;;;;;;52.65;25.27;;;11.30;99.90;;;;;;5071597;28;20055;-58
2022/01/01 06:38:14;;;;;;;49.58;24.55;;;11.30;99.90;;;;;;5074226;28;20044;-58
2022/01/01 06:40:42;;;;;;;51.28;24.25;;;11.30;99.90;;;;;;5072534;28;20036;-59
2022/01/01 06:43:09;;;;;;;40.63;22.23;;;11.30;99.90;;;;;;5071843;28;20499;-59
2022/01/01 06:45:35;;;;;;;45.47;22.73;;;11.30;99.90;;;;;;5068110;28;20037;-57
2022/01/01 06:48:01;;;;;;;49.47;23.95;;;11.30;99.90;;;;;;5072087;28;20129;-58
2022/01/01 06:50:26;;;;;;;47.55;23.05;;;11.30;99.90;;;;;;5071895;28;20039;-58
2022/01/01 06:52:52;;;;;;;49.88;23.67;;;11.30;99.90;;;;;;5074602;28;20188;-59
2022/01/01 06:55:18;;;;;;;45.17;22.73;;;11.30;99.90;;;;;;5070714;28;20718;-58
2022/01/01 06:57:44;;;;;;;45.35;23.30;;;11.30;99.90;;;;;;5068314;28;20041;-57
2022/01/01 07:00:10;;;;;;;50.75;23.13;;;11.30;99.90;;;;;;5065678;28;20045;-57
2022/01/01 07:02:44;;;;;;;46.25;21.67;;;11.30;99.90;;;;;;5073637;28;20049;-56
2022/01/01 07:05:11;;;;;;;45.88;22.02;;;11.30;99.90;;;;;;5074149;28;20068;-57
2022/01/01 07:07:37;;;;;;;45.60;22.23;;;11.30;99.90;;;;;;5068953;28;20471;-58
2022/01/01 07:10:05;;;;;;;42.83;22.88;;;11.30;99.90;;;;;;5072886;28;20032;-57
2022/01/01 07:12:30;;;;;;;48.45;24.48;;;11.30;99.90;;;;;;5066023;28;20045;-56
2022/01/01 07:14:56;;;;;;;47.67;23.48;;;11.30;99.90;;;;;;5068373;28;20105;-57
2022/01/01 07:17:21;;;;;;;47.70;23.80;;;11.30;99.90;;;;;;5067895;28;20044;-59
2022/01/01 07:19:47;;;;;;;50.97;23.95;;;11.30;99.90;;;;;;5067259;28;20039;-59
2022/01/01 07:22:12;;;;;;;44.42;24.58;;;11.40;99.90;;;;;;5069188;28;20033;-59
2022/01/01 07:24:39;;;;;;;51.85;24.05;;;11.40;99.90;;;;;;5069669;28;20052;-58
2022/01/01 07:27:05;;;;;;;46.08;24.65;;;11.30;99.90;;;;;;5065670;28;20056;-59
2022/01/01 07:29:31;;;;;;;54.38;26.30;;;11.40;99.90;;;;;;5064329;28;20418;-57
2022/01/01 07:31:56;;;;;;;52.55;25.73;;;11.40;99.90;;;;;;5067395;28;20051;-58
2022/01/01 07:34:22;;;;;;;50.05;26.80;;;11.40;99.90;;;;;;5060153;28;20140;-57
2022/01/01 07:36:48;;;;;;;58.00;26.33;;;11.40;99.90;;;;;;5057968;28;20068;-57
2022/01/01 07:39:14;;;;;;;58.63;27.05;;;11.40;99.90;;;;;;5069986;28;20036;-57
2022/01/01 07:41:40;;;;;;;51.40;25.42;;;11.40;99.90;;;;;;5069246;28;20127;-58
2022/01/01 07:44:06;;;;;;;50.92;26.45;;;11.40;99.90;;;;;;5071268;28;20059;-58
2022/01/01 07:46:32;;;;;;;54.17;27.52;;;11.40;99.90;;;;;;5068277;28;20044;-57
2022/01/01 07:48:58;;;;;;;54.40;27.08;;;11.40;99.90;;;;;;5067792;28;20048;-57
2022/01/01 07:51:24;;;;;;;56.03;27.33;;;11.40;99.90;;;;;;5069662;28;20044;-58
2022/01/01 07:53:50;;;;;;;51.65;27.55;;;11.40;99.90;;;;;;5068727;28;20394;-56
2022/01/01 07:56:16;;;;;;;52.38;26.83;;;11.40;99.90;;;;;;5066539;28;20056;-57
2022/01/01 07:58:41;;;;;;;55.42;28.13;;;11.50;99.90;;;;;;5067906;28;20041;-59
2022/01/01 08:01:07;;;;;;;58.95;27.67;;;11.50;99.90;;;;;;5066997;28;20036;-58
2022/01/01 08:03:33;;;;;;;55.30;27.65;;;11.50;99.90;;;;;;5069578;28;20056;-58
2022/01/01 08:05:58;;;;;;;56.55;29.10;;;11.50;99.90;;;;;;5068049;28;20036;-57
2022/01/01 08:08:24;;;;;;;45.45;26.70;;;11.50;99.90;;;;;;5067290;28;21623;-57
2022/01/01 08:10:50;;;;;;;50.50;28.25;;;11.50;99.90;;;;;;5068497;28;20057;-59
2022/01/01 08:13:24;;;;;;;56.00;29.00;;;11.50;99.90;;;;;;5070908;28;20059;-57
2022/01/01 08:15:54;;;;;;;56.00;30.20;;;11.50;99.90;;;;;;5063992;28;20037;-58
2022/01/01 08:18:20;;;;;;;57.60;30.77;;;11.60;99.90;;;;;;5066850;28;20131;-58
2022/01/01 08:20:47;;;;;;;56.95;30.23;;;11.60;99.90;;;;;;5067439;28;20067;-57
2022/01/01 08:23:13;;;;;;;53.47;30.17;;;11.60;99.90;;;;;;5069238;28;20067;-58
2022/01/01 08:25:39;;;;;;;53.28;29.52;;;11.60;99.90;;;;;;5071272;28;20036;-57
2022/01/01 08:28:06;;;;;;;50.72;29.27;;;11.70;99.90;;;;;;5065467;28;20376;-58
2022/01/01 08:30:35;;;;;;;56.60;30.65;;;11.70;99.90;;;;;;5071924;28;20109;-58
2022/01/01 08:33:03;;;;;;;50.10;28.88;;;11.70;99.90;;;;;;5067038;28;20177;-58
2022/01/01 08:35:33;;;;;;;49.45;29.08;;;11.80;99.90;;;;;;5067611;28;20060;-57
2022/01/01 08:38:01;;;;;;;52.08;30.35;;;11.80;99.90;;;;;;5065174;28;20057;-57
2022/01/01 08:40:28;;;;;;;49.08;28.73;;;11.80;99.90;;;;;;5065335;28;20055;-57
2022/01/01 08:42:54;;;;;;;47.08;28.10;;;11.90;99.90;;;;;;5070020;28;20079;-59
2022/01/01 08:45:20;;;;;;;49.25;27.95;;;11.90;99.90;;;;;;5065410;28;20387;-57
2022/01/01 08:47:45;;;;;;;49.75;26.77;;;11.90;99.90;;;;;;5064947;28;20055;-58
2022/01/01 08:50:11;;;;;;;44.92;26.83;;;12.00;99.90;;;;;;5066561;28;20457;-57
2022/01/01 08:52:37;;;;;;;49.15;25.88;;;12.00;99.90;;;;;;5067104;28;20033;-58
2022/01/01 08:55:03;;;;;;;46.08;26.38;;;12.00;99.90;;;;;;5068517;28;20624;-57
2022/01/01 08:57:32;;;;;;;48.92;24.80;;;12.00;99.90;;;;;;5065326;28;20473;-58
2022/01/01 09:00:00;;;;;;;44.30;24.23;;;12.10;99.90;;;;;;5063659;28;20086;-57
2022/01/01 09:02:26;;;;;;;38.22;22.52;;;12.10;99.90;;;;;;5063618;28;20148;-58
2022/01/01 09:04:52;;;;;;;40.72;23.30;;;12.10;99.90;;;;;;5067285;28;20048;-57
2022/01/01 09:07:18;;;;;;;39.35;23.33;;;12.10;99.90;;;;;;5064448;28;20036;-57
2022/01/01 09:09:43;;;;;;;37.47;21.42;;;12.20;99.90;;;;;;5065790;28;20090;-57
2022/01/01 09:12:10;;;;;;;37.58;21.30;;;12.20;99.90;;;;;;5064727;28;20052;-57
2022/01/01 09:14:37;;;;;;;32.87;20.17;;;12.20;99.90;;;;;;5062883;28;20131;-57
2022/01/01 09:17:05;;;;;;;33.22;20.27;;;12.20;99.90;;;;;;5064093;28;20059;-58
2022/01/01 09:19:30;;;;;;;38.20;19.87;;;12.20;99.90;;;;;;5066335;28;20067;-57
2022/01/01 09:21:56;;;;;;;36.53;20.05;;;12.30;99.90;;;;;;5065727;28;20067;-57
2022/01/01 09:24:21;;;;;;;35.97;18.30;;;12.30;99.90;;;;;;5071562;28;20040;-57
2022/01/01 09:26:47;;;;;;;30.73;18.20;;;12.40;99.90;;;;;;5069225;28;20509;-57
2022/01/01 09:29:13;;;;;;;29.90;17.95;;;12.40;99.90;;;;;;5067212;28;20041;-57
2022/01/01 09:31:40;;;;;;;30.92;16.73;;;12.40;99.90;;;;;;5067749;28;20044;-57
2022/01/01 09:34:05;;;;;;;26.95;16.00;;;12.50;99.90;;;;;;5064433;28;20045;-58
2022/01/01 09:36:32;;;;;;;27.65;15.38;;;12.50;99.90;;;;;;5064202;28;20040;-57
2022/01/01 09:38:57;;;;;;;24.50;15.63;;;12.60;99.90;;;;;;5067772;28;20499;-57
2022/01/01 09:41:23;;;;;;;25.42;14.77;;;12.60;99.90;;;;;;5066331;28;20033;-57
2022/01/01 09:43:52;;;;;;;24.42;14.00;;;12.60;99.90;;;;;;5062833;28;20480;-57
2022/01/01 09:46:17;;;;;;;29.40;14.55;;;12.70;99.90;;;;;;5062454;28;20556;-57
2022/01/01 09:48:43;;;;;;;23.08;13.30;;;12.70;99.90;;;;;;5070528;28;20048;-56
2022/01/01 09:51:09;;;;;;;25.42;12.98;;;12.80;99.90;;;;;;5067806;28;20384;-56
2022/01/01 09:53:35;;;;;;;17.65;11.85;;;12.80;99.90;;;;;;5064051;28;20459;-57
2022/01/01 09:56:02;;;;;;;24.48;12.52;;;12.80;99.90;;;;;;5061967;28;20078;-56
2022/01/01 09:58:33;;;;;;;21.20;11.70;;;12.90;99.90;;;;;;5067724;28;20051;-58
2022/01/01 10:01:00;;;;;;;22.88;12.27;;;13.00;99.90;;;;;;5064540;28;20136;-57
2022/01/01 10:03:48;;;;;;;23.33;12.05;;;13.00;99.90;;;;;;5063475;28;20044;-57
2022/01/01 10:06:16;;;;;;;21.70;11.05;;;13.00;99.90;;;;;;5067116;28;20131;-57
2022/01/01 10:08:45;;;;;;;21.67;11.70;;;13.10;99.90;;;;;;5065241;28;20144;-56
2022/01/01 10:11:16;;;;;;;20.50;10.20;;;13.10;99.90;;;;;;5065778;28;20049;-56
2022/01/01 10:13:41;;;;;;;20.40;11.07;;;13.00;99.90;;;;;;5069106;28;20052;-57
2022/01/01 10:16:09;;;;;;;20.98;10.90;;;13.00;99.90;;;;;;5071337;28;20096;-57
2022/01/01 10:18:48;;;;;;;15.90;9.90;;;13.00;99.90;;;;;;5064374;28;20095;-57
2022/01/01 10:21:16;;;;;;;20.13;9.70;;;13.00;99.90;;;;;;5067802;28;20052;-57
2022/01/01 10:23:44;;;;;;;18.80;9.20;;;13.00;99.90;;;;;;5074269;28;20044;-57
2022/01/01 10:29:16;;;;;;;19.60;9.43;;;13.00;99.90;;;;;;5065102;28;20475;-59
2022/01/01 10:32:01;;;;;;;17.15;8.35;;;13.00;99.90;;;;;;5065333;28;20052;-56
2022/01/01 10:34:29;;;;;;;19.88;8.93;;;13.00;99.90;;;;;;5060526;28;20051;-57
2022/01/01 10:36:55;;;;;;;17.75;8.32;;;12.90;99.90;;;;;;5057746;28;20049;-57
2022/01/01 10:39:21;;;;;;;19.08;9.00;;;12.90;99.90;;;;;;5061426;28;20444;-57
2022/01/01 10:41:53;;;;;;;16.42;8.15;;;12.90;99.90;;;;;;5065204;28;20047;-56
2022/01/01 10:44:26;;;;;;;16.40;7.78;;;12.90;99.90;;;;;;5062299;28;20044;-57
2022/01/01 10:46:52;;;;;;;17.48;8.65;;;12.90;99.90;;;;;;5064461;28;20098;-58
2022/01/01 10:52:16;;;;;;;16.58;8.20;;;12.80;99.90;;;;;;5058700;28;20503;-58
2022/01/01 10:55:07;;;;;;;16.38;8.10;;;12.80;99.90;;;;;;5058727;28;20810;-57
2022/01/01 10:57:35;;;;;;;14.23;6.78;;;12.80;99.90;;;;;;5058083;28;20385;-56
2022/01/01 11:00:06;;;;;;;16.77;7.63;;;12.80;99.90;;;;;;5060265;28;20037;-58
2022/01/01 11:02:33;;;;;;;15.10;7.18;;;12.80;99.90;;;;;;5056263;28;20061;-59
2022/01/01 11:04:59;;;;;;;16.40;7.28;;;12.80;99.90;;;;;;5055428;28;20037;-57
2022/01/01 11:07:27;;;;;;;20.67;8.43;;;12.80;99.90;;;;;;5055743;28;20048;-57
2022/01/01 11:09:54;;;;;;;18.23;8.35;;;12.80;99.90;;;;;;5059371;28;20466;-57
2022/01/01 11:12:21;;;;;;;18.63;7.82;;;12.80;99.90;;;;;;5060400;28;20040;-56
2022/01/01 11:14:47;;;;;;;17.73;8.25;;;12.80;99.90;;;;;;5068735;28;20036;-57
2022/01/01 11:17:13;;;;;;;16.23;7.57;;;12.80;99.90;;;;;;5066350;28;20647;-58
2022/01/01 11:19:40;;;;;;;15.32;7.43;;;12.80;99.90;;;;;;5062060;28;20045;-56
2022/01/01 11:22:06;;;;;;;16.73;7.53;;;12.80;99.90;;;;;;5057125;28;20522;-56
2022/01/01 11:24:33;;;;;;;16.15;7.32;;;12.80;99.90;;;;;;5060608;28;20056;-58
2022/01/01 11:26:59;;;;;;;15.30;7.10;;;12.70;99.90;;;;;;5057328;28;20529;-55
2022/01/01 11:29:25;;;;;;;13.57;7.03;;;12.70;99.90;;;;;;5059612;28;20048;-57
2022/01/01 11:31:53;;;;;;;12.73;7.13;;;12.70;99.90;;;;;;5057016;28;20052;-57
2022/01/01 11:34:19;;;;;;;13.27;6.65;;;12.70;99.90;;;;;;5059022;28;20448;-58
2022/01/01 11:36:45;;;;;;;13.98;7.20;;;12.70;99.90;;;;;;5058005;28;20060;-57
2022/01/01 11:39:13;;;;;;;15.80;7.55;;;12.70;99.90;;;;;;5055827;28;20182;-59
2022/01/01 11:41:44;;;;;;;15.75;7.60;;;12.70;99.90;;;;;;5056440;28;20056;-56
2022/01/01 11:44:48;;;;;;;14.82;7.57;;;12.80;99.90;;;;;;5057106;28;20463;-56
2022/01/01 11:47:17;;;;;;;17.00;8.10;;;12.80;99.90;;;;;;5064012;28;20687;-56
2022/01/01 11:49:43;;;;;;;13.23;7.63;;;12.80;99.90;;;;;;5060238;28;20520;-58
2022/01/01 11:52:08;;;;;;;16.50;8.43;;;12.80;99.90;;;;;;5064391;28;20064;-57
2022/01/01 11:54:39;;;;;;;16.67;7.97;;;12.80;99.90;;;;;;5067699;28;20071;-56
2022/01/01 11:57:28;;;;;;;13.80;7.88;;;12.80;99.90;;;;;;5056928;28;20052;-56
2022/01/01 12:00:01;;;;;;;15.20;8.07;;;12.90;99.90;;;;;;5066392;28;20067;-57
2022/01/01 12:02:29;;;;;;;12.43;7.82;;;12.90;99.90;;;;;;5061168;28;20037;-57
2022/01/01 12:05:09;;;;;;;15.23;7.45;;;12.80;99.90;;;;;;5060967;28;20466;-56
2022/01/01 12:07:52;;;;;;;14.55;7.88;;;12.90;99.90;;;;;;5063646;28;20059;-58
2022/01/01 12:10:21;;;;;;;14.52;7.55;;;12.90;99.90;;;;;;5065329;28;20048;-57
2022/01/01 12:13:00;;;;;;;11.25;6.65;;;12.90;99.90;;;;;;5061478;28;20049;-57
2022/01/01 12:15:48;;;;;;;11.77;7.65;;;12.90;99.90;;;;;;5069103;28;20044;-56
2022/01/01 12:18:26;;;;;;;13.48;7.65;;;13.00;99.90;;;;;;5060815;28;20586;-58
2022/01/01 12:20:57;;;;;;;12.75;7.25;;;13.00;99.90;;;;;;5063967;28;20044;-57
2022/01/01 12:23:25;;;;;;;15.38;7.88;;;13.00;99.90;;;;;;5062145;28;20556;-57
2022/01/01 12:25:54;;;;;;;14.55;7.80;;;13.00;99.90;;;;;;5058797;28;20128;-58
2022/01/01 12:28:32;;;;;;;13.80;7.43;;;13.00;99.90;;;;;;5059575;28;20135;-57
2022/01/01 12:31:19;;;;;;;14.15;7.55;;;13.00;99.90;;;;;;5060795;28;20135;-57
2022/01/01 12:33:48;;;;;;;12.73;7.20;;;13.00;99.90;;;;;;5056655;28;20037;-58
2022/01/01 12:36:16;;;;;;;14.98;7.60;;;13.00;99.90;;;;;;5066285;28;20037;-58
2022/01/01 12:38:52;;;;;;;13.73;7.40;;;13.00;99.90;;;;;;5063808;28;20399;-57